sensor_id;sensor_type;location;lat;lon;timestamp;pressure;altitude;pressure_sealevel;temperature;humidity
24996;BME280;13016;52.162;21.034;2023-07-22T00:21:56;99786.36;;;24.15;49.67
24996;BME280;13016;52.162;21.034;2023-07-22T00:28:09;99785.63;;;24.11;50.50
24996;BME280;13016;52.162;21.034;2023-07-22T01:36:11;99743.73;;;23.49;53.33
24996;BME280;13016;52.162;21.034;2023-07-22T01:42:14;99729.91;;;23.33;53.95
24996;BME280;13016;52.162;21.034;2023-07-22T01:48:17;99724.83;;;23.25;54.49
24996;BME280;13016;52.162;21.034;2023-07-22T01:54:21;99716.61;;;23.12;55.55
24996;BME280;13016;52.162;21.034;2023-07-22T02:02:37;99728.92;;;23.11;56.01
24996;BME280;13016;52.162;21.034;2023-07-22T02:08:44;99721.02;;;22.99;56.53
24996;BME280;13016;52.162;21.034;2023-07-22T02:27:23;99723.90;;;22.86;57.13
24996;BME280;13016;52.162;21.034;2023-07-22T02:33:23;99726.02;;;22.72;57.70
24996;BME280;13016;52.162;21.034;2023-07-22T02:41:22;99722.08;;;22.72;58.09
24996;BME280;13016;52.162;21.034;2023-07-22T02:47:33;99722.80;;;22.60;58.57
24996;BME280;13016;52.162;21.034;2023-07-22T02:53:34;99719.73;;;22.54;59.11
24996;BME280;13016;52.162;21.034;2023-07-22T02:59:35;99716.23;;;22.40;59.72
24996;BME280;13016;52.162;21.034;2023-07-22T03:05:35;99708.18;;;22.45;59.53
24996;BME280;13016;52.162;21.034;2023-07-22T03:21:26;99703.08;;;23.02;58.14
24996;BME280;13016;52.162;21.034;2023-07-22T03:27:37;99702.38;;;23.03;58.00
24996;BME280;13016;52.162;21.034;2023-07-22T03:33:40;99707.77;;;23.09;57.91
24996;BME280;13016;52.162;21.034;2023-07-22T03:39:43;99712.98;;;23.17;57.78
24996;BME280;13016;52.162;21.034;2023-07-22T04:02:30;99713.98;;;23.45;57.27
24996;BME280;13016;52.162;21.034;2023-07-22T04:37:30;99738.70;;;24.45;55.11
24996;BME280;13016;52.162;21.034;2023-07-22T04:43:33;99747.23;;;24.36;54.78
24996;BME280;13016;52.162;21.034;2023-07-22T05:45:20;99782.91;;;24.08;54.48
24996;BME280;13016;52.162;21.034;2023-07-22T05:51:23;99787.77;;;24.22;54.42
24996;BME280;13016;52.162;21.034;2023-07-22T06:35:12;99812.17;;;25.86;49.22
24996;BME280;13016;52.162;21.034;2023-07-22T06:41:17;99819.46;;;26.01;48.77
24996;BME280;13016;52.162;21.034;2023-07-22T07:21:33;99844.95;;;26.58;44.30
24996;BME280;13016;52.162;21.034;2023-07-22T07:27:41;99854.35;;;26.36;44.84
24996;BME280;13016;52.162;21.034;2023-07-22T07:35:54;99862.94;;;26.64;42.92
24996;BME280;13016;52.162;21.034;2023-07-22T07:42:05;99869.01;;;26.97;42.52
24996;BME280;13016;52.162;21.034;2023-07-22T08:20:31;99912.81;;;30.26;34.79
24996;BME280;13016;52.162;21.034;2023-07-22T08:32:45;99922.77;;;30.21;32.88
24996;BME280;13016;52.162;21.034;2023-07-22T08:44:57;99931.45;;;30.54;31.51
24996;BME280;13016;52.162;21.034;2023-07-22T08:57:11;99947.16;;;31.15;30.67
24996;BME280;13016;52.162;21.034;2023-07-22T09:03:12;99954.49;;;31.54;30.83
24996;BME280;13016;52.162;21.034;2023-07-22T09:09:13;99953.01;;;31.91;29.87
24996;BME280;13016;52.162;21.034;2023-07-22T09:22:51;99960.19;;;31.67;29.81
24996;BME280;13016;52.162;21.034;2023-07-22T09:28:57;99956.77;;;31.09;30.64
24996;BME280;13016;52.162;21.034;2023-07-22T09:35:06;99961.05;;;30.42;31.33
24996;BME280;13016;52.162;21.034;2023-07-22T09:41:07;99957.65;;;29.79;32.97
24996;BME280;13016;52.162;21.034;2023-07-22T09:47:09;99961.85;;;30.05;33.21
24996;BME280;13016;52.162;21.034;2023-07-22T09:53:16;99962.73;;;30.33;32.30
24996;BME280;13016;52.162;21.034;2023-07-22T09:59:22;99976.89;;;30.32;31.47
24996;BME280;13016;52.162;21.034;2023-07-22T10:05:27;99977.91;;;29.97;31.14
24996;BME280;13016;52.162;21.034;2023-07-22T10:11:37;99978.38;;;29.49;31.13
24996;BME280;13016;52.162;21.034;2023-07-22T10:18:48;99981.11;;;29.64;31.59
24996;BME280;13016;52.162;21.034;2023-07-22T10:24:49;99979.86;;;29.23;31.66
24996;BME280;13016;52.162;21.034;2023-07-22T10:30:52;99980.02;;;28.99;31.64
24996;BME280;13016;52.162;21.034;2023-07-22T10:37:01;99977.83;;;28.64;32.92
24996;BME280;13016;52.162;21.034;2023-07-22T10:43:05;99973.85;;;29.01;31.98
24996;BME280;13016;52.162;21.034;2023-07-22T10:49:15;99976.50;;;29.13;31.29
24996;BME280;13016;52.162;21.034;2023-07-22T10:55:17;99977.27;;;28.90;31.47
24996;BME280;13016;52.162;21.034;2023-07-22T11:07:33;99979.48;;;29.29;31.22
24996;BME280;13016;52.162;21.034;2023-07-22T11:13:40;99981.35;;;29.53;30.86
24996;BME280;13016;52.162;21.034;2023-07-22T11:19:40;99973.55;;;29.63;30.71
24996;BME280;13016;52.162;21.034;2023-07-22T11:25:41;99972.58;;;29.69;30.62
24996;BME280;13016;52.162;21.034;2023-07-22T11:31:46;99973.22;;;29.67;29.76
24996;BME280;13016;52.162;21.034;2023-07-22T11:44:05;99985.46;;;29.68;30.81
24996;BME280;13016;52.162;21.034;2023-07-22T11:50:16;99983.71;;;29.76;30.63
24996;BME280;13016;52.162;21.034;2023-07-22T11:56:27;99983.23;;;29.93;29.84
24996;BME280;13016;52.162;21.034;2023-07-22T12:02:28;99987.32;;;29.87;29.54
24996;BME280;13016;52.162;21.034;2023-07-22T12:14:37;99982.45;;;30.01;29.92
24996;BME280;13016;52.162;21.034;2023-07-22T12:20:40;99978.34;;;30.17;29.91
24996;BME280;13016;52.162;21.034;2023-07-22T12:26:41;99972.62;;;30.11;29.74
24996;BME280;13016;52.162;21.034;2023-07-22T12:32:41;99962.98;;;30.05;28.90
24996;BME280;13016;52.162;21.034;2023-07-22T12:38:41;99964.27;;;30.10;28.54
24996;BME280;13016;52.162;21.034;2023-07-22T12:44:42;99964.59;;;30.00;28.55
24996;BME280;13016;52.162;21.034;2023-07-22T12:50:44;99966.33;;;29.82;28.85
24996;BME280;13016;52.162;21.034;2023-07-22T12:56:44;99963.27;;;29.99;28.44
24996;BME280;13016;52.162;21.034;2023-07-22T13:02:45;99953.73;;;29.79;27.78
24996;BME280;13016;52.162;21.034;2023-07-22T13:08:45;99963.85;;;29.66;26.92
24996;BME280;13016;52.162;21.034;2023-07-22T13:14:45;99963.89;;;29.64;27.54
24996;BME280;13016;52.162;21.034;2023-07-22T13:20:46;99971.77;;;29.70;27.53
24996;BME280;13016;52.162;21.034;2023-07-22T13:26:46;99983.51;;;29.65;27.47
24996;BME280;13016;52.162;21.034;2023-07-22T13:38:55;99978.20;;;29.55;27.83
24996;BME280;13016;52.162;21.034;2023-07-22T13:44:55;99986.05;;;29.43;27.80
24996;BME280;13016;52.162;21.034;2023-07-22T13:50:55;99981.61;;;29.44;27.63
24996;BME280;13016;52.162;21.034;2023-07-22T13:56:56;99990.13;;;29.55;27.79
24996;BME280;13016;52.162;21.034;2023-07-22T14:02:57;99984.38;;;29.39;28.08
24996;BME280;13016;52.162;21.034;2023-07-22T14:08:57;99982.27;;;29.34;28.23
24996;BME280;13016;52.162;21.034;2023-07-22T14:14:58;99981.49;;;29.29;27.87
24996;BME280;13016;52.162;21.034;2023-07-22T14:20:58;99979.40;;;29.43;27.25
24996;BME280;13016;52.162;21.034;2023-07-22T14:26:59;99991.34;;;29.52;27.60
24996;BME280;13016;52.162;21.034;2023-07-22T14:32:59;99981.77;;;29.56;27.36
24996;BME280;13016;52.162;21.034;2023-07-22T14:45:07;99981.98;;;29.49;26.21
24996;BME280;13016;52.162;21.034;2023-07-22T14:51:08;99981.42;;;29.27;26.56
24996;BME280;13016;52.162;21.034;2023-07-22T14:57:08;99993.05;;;29.14;28.18
24996;BME280;13016;52.162;21.034;2023-07-22T15:03:12;99999.36;;;28.90;29.16
24996;BME280;13016;52.162;21.034;2023-07-22T15:09:12;99992.69;;;28.84;29.21
24996;BME280;13016;52.162;21.034;2023-07-22T15:15:13;99999.11;;;28.89;29.10
24996;BME280;13016;52.162;21.034;2023-07-22T15:21:13;100001.29;;;28.84;28.79
24996;BME280;13016;52.162;21.034;2023-07-22T15:27:14;100004.52;;;28.82;27.71
24996;BME280;13016;52.162;21.034;2023-07-22T15:33:14;99998.61;;;28.49;27.84
24996;BME280;13016;52.162;21.034;2023-07-22T15:47:18;100001.56;;;28.55;28.50
24996;BME280;13016;52.162;21.034;2023-07-22T15:53:18;99996.16;;;28.33;28.84
24996;BME280;13016;52.162;21.034;2023-07-22T15:59:19;100001.98;;;28.22;29.17
24996;BME280;13016;52.162;21.034;2023-07-22T16:05:19;99999.54;;;28.29;29.45
24996;BME280;13016;52.162;21.034;2023-07-22T16:11:19;100002.44;;;28.14;29.36
24996;BME280;13016;52.162;21.034;2023-07-22T16:17:19;100010.91;;;28.06;29.59
24996;BME280;13016;52.162;21.034;2023-07-22T16:23:20;100021.35;;;27.94;30.03
24996;BME280;13016;52.162;21.034;2023-07-22T16:29:20;100022.23;;;27.92;30.11
24996;BME280;13016;52.162;21.034;2023-07-22T16:35:21;100026.34;;;27.84;30.18
24996;BME280;13016;52.162;21.034;2023-07-22T16:41:21;100033.41;;;27.76;30.18
24996;BME280;13016;52.162;21.034;2023-07-22T16:47:24;100037.84;;;27.81;30.20
24996;BME280;13016;52.162;21.034;2023-07-22T16:53:24;100047.05;;;27.75;29.76
24996;BME280;13016;52.162;21.034;2023-07-22T16:59:25;100042.58;;;27.71;29.67
24996;BME280;13016;52.162;21.034;2023-07-22T17:05:25;100048.13;;;27.77;29.74
24996;BME280;13016;52.162;21.034;2023-07-22T17:11:26;100055.98;;;27.76;29.33
24996;BME280;13016;52.162;21.034;2023-07-22T17:17:26;100055.95;;;27.56;28.79
24996;BME280;13016;52.162;21.034;2023-07-22T17:23:26;100058.43;;;27.52;28.91
24996;BME280;13016;52.162;21.034;2023-07-22T17:29:26;100058.14;;;27.45;29.07
24996;BME280;13016;52.162;21.034;2023-07-22T17:35:27;100062.40;;;27.51;29.16
24996;BME280;13016;52.162;21.034;2023-07-22T17:41:28;100059.43;;;27.48;29.27
24996;BME280;13016;52.162;21.034;2023-07-22T17:53:46;100069.23;;;27.25;30.06
24996;BME280;13016;52.162;21.034;2023-07-22T17:59:49;100076.59;;;27.16;29.74
24996;BME280;13016;52.162;21.034;2023-07-22T18:05:49;100072.05;;;27.04;29.17
24996;BME280;13016;52.162;21.034;2023-07-22T18:11:52;100079.77;;;26.92;29.10
24996;BME280;13016;52.162;21.034;2023-07-22T18:34:23;100088.36;;;27.18;28.87
24996;BME280;13016;52.162;21.034;2023-07-22T18:40:33;100095.75;;;26.93;29.09
24996;BME280;13016;52.162;21.034;2023-07-22T18:46:33;100104.59;;;26.68;29.76
24996;BME280;13016;52.162;21.034;2023-07-22T18:52:34;100110.29;;;26.51;30.00
24996;BME280;13016;52.162;21.034;2023-07-22T18:58:41;100114.33;;;26.36;30.19
24996;BME280;13016;52.162;21.034;2023-07-22T19:07:54;100123.89;;;26.01;30.91
24996;BME280;13016;52.162;21.034;2023-07-22T19:14:02;100133.52;;;25.80;31.23
24996;BME280;13016;52.162;21.034;2023-07-22T19:40:05;100153.38;;;25.38;31.95
24996;BME280;13016;52.162;21.034;2023-07-22T19:46:17;100152.04;;;25.16;32.43
24996;BME280;13016;52.162;21.034;2023-07-22T19:52:24;100150.21;;;25.06;32.61
24996;BME280;13016;52.162;21.034;2023-07-22T19:58:28;100158.66;;;24.82;33.15
24996;BME280;13016;52.162;21.034;2023-07-22T20:20:53;100162.59;;;24.41;33.59
24996;BME280;13016;52.162;21.034;2023-07-22T20:27:02;100165.45;;;24.33;33.68
24996;BME280;13016;52.162;21.034;2023-07-22T20:33:11;100169.91;;;24.26;33.80
24996;BME280;13016;52.162;21.034;2023-07-22T20:39:17;100174.05;;;24.10;34.06
24996;BME280;13016;52.162;21.034;2023-07-22T20:58:13;100185.07;;;23.82;34.62
24996;BME280;13016;52.162;21.034;2023-07-22T21:04:19;100182.86;;;23.72;34.63
24996;BME280;13016;52.162;21.034;2023-07-22T21:10:19;100185.48;;;23.64;34.92
24996;BME280;13016;52.162;21.034;2023-07-22T21:16:22;100185.05;;;23.53;35.23
24996;BME280;13016;52.162;21.034;2023-07-22T21:22:23;100182.52;;;23.51;35.15
24996;BME280;13016;52.162;21.034;2023-07-22T21:28:37;100187.29;;;23.44;35.40
24996;BME280;13016;52.162;21.034;2023-07-22T21:34:45;100185.44;;;23.31;35.76
24996;BME280;13016;52.162;21.034;2023-07-22T21:40:53;100190.41;;;23.21;35.91
24996;BME280;13016;52.162;21.034;2023-07-22T22:36:17;100234.98;;;22.59;37.44
24996;BME280;13016;52.162;21.034;2023-07-22T22:42:20;100239.61;;;22.58;37.64
24996;BME280;13016;52.162;21.034;2023-07-22T22:48:27;100241.94;;;22.44;37.96
24996;BME280;13016;52.162;21.034;2023-07-22T22:54:30;100246.68;;;22.37;38.12
24996;BME280;13016;52.162;21.034;2023-07-22T23:00:37;100252.17;;;22.23;38.73
24996;BME280;13016;52.162;21.034;2023-07-22T23:06:44;100258.53;;;22.07;39.28
24996;BME280;13016;52.162;21.034;2023-07-22T23:12:52;100256.79;;;21.79;39.95
24996;BME280;13016;52.162;21.034;2023-07-22T23:18:53;100264.04;;;21.58;40.59
24996;BME280;13016;52.162;21.034;2023-07-22T23:31:13;100265.85;;;21.54;40.50
24996;BME280;13016;52.162;21.034;2023-07-22T23:55:54;100262.62;;;21.28;41.43
